Time,TemperatureF,DewpointF,PressureIn,WindDirection,WindDirectionDegrees,WindSpeedMPH,WindSpeedGustMPH,Humidity,HourlyPrecipIn,Conditions,Clouds,dailyrainin,SoftwareType,DateUTC
2013-08-18 00:04:00,67.8,66.6,29.91,SW,225,0.0,-999.0,96,-99.99,,,0.00,Acu-Link.com,2013-08-18 04:04:00,
2013-08-18 00:19:00,67.8,66.6,29.92,SE,135,0.0,-999.0,96,-99.99,,,0.00,Acu-Link.com,2013-08-18 04:19:00,
2013-08-18 00:34:00,67.8,66.6,29.91,NNE,22,0.0,-999.0,96,-99.99,,,0.01,Acu-Link.com,2013-08-18 04:34:00,
2013-08-18 00:49:00,67.8,66.6,29.93,WSW,247,0.0,-999.0,96,-99.99,,,0.01,Acu-Link.com,2013-08-18 04:49:00,
2013-08-18 01:04:00,67.8,66.6,29.92,West,270,0.0,-999.0,96,-99.99,,,0.01,Acu-Link.com,2013-08-18 05:04:00,
2013-08-18 01:19:00,67.8,66.6,29.92,SW,225,0.0,-999.0,96,-99.99,,,0.01,Acu-Link.com,2013-08-18 05:19:00,
2013-08-18 01:34:00,67.8,66.6,29.92,ENE,67,0.0,-999.0,96,-99.99,,,0.01,Acu-Link.com,2013-08-18 05:34:00,
2013-08-18 01:49:00,67.8,66.6,29.91,NE,45,0.0,-999.0,96,-99.99,,,0.01,Acu-Link.com,2013-08-18 05:49:00,
2013-08-18 02:04:00,67.8,66.6,29.92,NE,45,0.0,-999.0,96,-99.99,,,0.01,Acu-Link.com,2013-08-18 06:04:00,
2013-08-18 02:20:00,67.8,66.6,29.92,NE,45,0.0,-999.0,96,-99.99,,,0.01,Acu-Link.com,2013-08-18 06:20:00,
2013-08-18 02:35:00,67.8,66.6,29.91,NE,45,0.0,-999.0,96,-99.99,,,0.01,Acu-Link.com,2013-08-18 06:35:00,
2013-08-18 02:50:00,67.8,66.6,29.90,SW,225,0.0,-999.0,96,-99.99,,,0.01,Acu-Link.com,2013-08-18 06:50:00,
2013-08-18 03:05:00,67.8,66.6,29.90,ENE,67,0.0,-999.0,96,-99.99,,,0.01,Acu-Link.com,2013-08-18 07:05:00,
2013-08-18 03:20:00,67.8,66.6,29.90,WNW,292,0.0,-999.0,96,-99.99,,,0.01,Acu-Link.com,2013-08-18 07:20:00,
2013-08-18 03:35:00,68.0,66.8,29.91,WNW,292,0.0,-999.0,96,-99.99,,,0.01,Acu-Link.com,2013-08-18 07:35:00,
2013-08-18 03:50:00,68.0,66.8,29.90,WNW,292,0.0,-999.0,96,-99.99,,,0.01,Acu-Link.com,2013-08-18 07:50:00,
2013-08-18 04:05:00,68.0,66.8,29.90,East,90,0.0,-999.0,96,-99.99,,,0.01,Acu-Link.com,2013-08-18 08:05:00,
2013-08-18 04:21:00,68.0,66.8,29.90,East,90,0.0,-999.0,96,-99.99,,,0.01,Acu-Link.com,2013-08-18 08:21:00,
2013-08-18 04:36:00,68.0,66.8,29.90,SSE,157,0.0,-999.0,96,-99.99,,,0.01,Acu-Link.com,2013-08-18 08:36:00,
2013-08-18 04:51:00,68.0,66.8,29.89,ENE,67,0.0,-999.0,96,-99.99,,,0.01,Acu-Link.com,2013-08-18 08:51:00,
2013-08-18 05:06:00,68.0,66.8,29.90,ENE,67,0.0,-999.0,96,-99.99,,,0.01,Acu-Link.com,2013-08-18 09:06:00,
2013-08-18 05:21:00,68.0,66.8,29.90,NE,45,0.0,-999.0,96,-99.99,,,0.01,Acu-Link.com,2013-08-18 09:21:00,
2013-08-18 05:36:00,68.0,66.8,29.91,NE,45,0.0,-999.0,96,-99.99,,,0.01,Acu-Link.com,2013-08-18 09:36:00,
2013-08-18 05:52:00,68.0,67.1,29.92,SW,225,0.0,-999.0,97,-99.99,,,0.01,Acu-Link.com,2013-08-18 09:52:00,
2013-08-18 06:07:00,68.2,67.3,29.92,SW,225,0.0,-999.0,97,-99.99,,,0.01,Acu-Link.com,2013-08-18 10:07:00,
2013-08-18 06:22:00,68.2,67.3,29.92,SW,225,0.0,-999.0,97,-99.99,,,0.01,Acu-Link.com,2013-08-18 10:22:00,
2013-08-18 06:37:00,68.2,67.3,29.93,SW,225,0.0,-999.0,97,-99.99,,,0.01,Acu-Link.com,2013-08-18 10:37:00,
2013-08-18 06:52:00,68.2,67.3,29.94,SW,225,0.0,-999.0,97,-99.99,,,0.01,Acu-Link.com,2013-08-18 10:52:00,
2013-08-18 07:07:00,68.4,67.5,29.94,SW,225,0.0,-999.0,97,-99.99,,,0.01,Acu-Link.com,2013-08-18 11:07:00,
2013-08-18 07:22:00,68.5,67.6,29.93,SW,225,0.0,-999.0,97,-99.99,,,0.01,Acu-Link.com,2013-08-18 11:22:00,
2013-08-18 07:37:00,68.9,68.0,29.93,SW,225,0.0,-999.0,97,-99.99,,,0.01,Acu-Link.com,2013-08-18 11:37:00,
2013-08-18 07:53:00,69.1,68.2,29.93,East,90,0.0,-999.0,97,-99.99,,,0.01,Acu-Link.com,2013-08-18 11:53:00,
2013-08-18 08:08:00,69.3,68.4,29.94,WSW,247,0.0,-999.0,97,-99.99,,,0.01,Acu-Link.com,2013-08-18 12:08:00,
2013-08-18 08:23:00,69.3,68.4,29.94,SW,225,0.0,-999.0,97,-99.99,,,0.01,Acu-Link.com,2013-08-18 12:23:00,
2013-08-18 08:38:00,69.8,68.6,29.95,East,90,0.0,-999.0,96,-99.99,,,0.01,Acu-Link.com,2013-08-18 12:38:00,
2013-08-18 08:53:00,70.3,68.5,29.96,East,90,0.0,-999.0,94,-99.99,,,0.01,Acu-Link.com,2013-08-18 12:53:00,
2013-08-18 09:08:00,70.9,69.1,29.98,ENE,67,0.0,-999.0,94,-99.99,,,0.01,Acu-Link.com,2013-08-18 13:08:00,
2013-08-18 09:23:00,71.6,69.1,29.96,West,270,0.0,-999.0,92,-99.99,,,0.01,Acu-Link.com,2013-08-18 13:23:00,
2013-08-18 09:38:00,71.6,69.1,29.96,WSW,247,0.0,-999.0,92,-99.99,,,0.01,Acu-Link.com,2013-08-18 13:38:00,
2013-08-18 09:53:00,72.0,69.2,29.98,WNW,292,0.0,-999.0,91,-99.99,,,0.01,Acu-Link.com,2013-08-18 13:53:00,
2013-08-18 10:09:00,73.0,69.9,29.97,West,270,0.0,-999.0,90,-99.99,,,0.01,Acu-Link.com,2013-08-18 14:09:00,
2013-08-18 10:24:00,74.5,70.0,29.98,ENE,67,2.2,-999.0,86,-99.99,,,0.01,Acu-Link.com,2013-08-18 14:24:00,
2013-08-18 10:39:00,75.2,70.4,29.98,East,90,0.0,-999.0,85,-99.99,,,0.01,Acu-Link.com,2013-08-18 14:39:00,
2013-08-18 10:54:00,76.3,71.1,29.98,East,90,1.7,-999.0,84,-99.99,,,0.01,Acu-Link.com,2013-08-18 14:54:00,
2013-08-18 11:09:00,78.1,72.1,29.97,SSE,157,0.0,-999.0,82,-99.99,,,0.01,Acu-Link.com,2013-08-18 15:09:00,
2013-08-18 11:24:00,79.7,72.6,29.98,East,90,0.0,-999.0,79,-99.99,,,0.01,Acu-Link.com,2013-08-18 15:24:00,
2013-08-18 11:39:00,80.4,72.1,29.97,ESE,112,0.0,-999.0,76,-99.99,,,0.01,Acu-Link.com,2013-08-18 15:39:00,
2013-08-18 11:54:00,80.6,72.3,29.97,WSW,247,0.0,-999.0,76,-99.99,,,0.01,Acu-Link.com,2013-08-18 15:54:00,
2013-08-18 12:09:00,80.6,71.9,29.98,ENE,67,0.0,-999.0,75,-99.99,,,0.01,Acu-Link.com,2013-08-18 16:09:00,
2013-08-18 12:24:00,80.4,72.1,29.96,WSW,247,0.0,-999.0,76,-99.99,,,0.01,Acu-Link.com,2013-08-18 16:24:00,
2013-08-18 12:40:00,80.2,73.1,29.96,South,180,0.0,-999.0,79,-99.99,,,0.01,Acu-Link.com,2013-08-18 16:40:00,
2013-08-18 12:55:00,81.9,72.4,29.96,SW,225,0.0,-999.0,73,-99.99,,,0.01,Acu-Link.com,2013-08-18 16:55:00,
2013-08-18 13:10:00,81.9,73.2,29.95,WSW,247,0.0,-999.0,75,-99.99,,,0.01,Acu-Link.com,2013-08-18 17:10:00,
2013-08-18 13:25:00,83.8,72.9,29.94,SW,225,0.0,-999.0,70,-99.99,,,0.01,Acu-Link.com,2013-08-18 17:25:00,
2013-08-18 13:40:00,86.5,74.2,29.94,SW,225,0.0,-999.0,67,-99.99,,,0.01,Acu-Link.com,2013-08-18 17:40:00,
2013-08-18 13:55:00,87.1,74.8,29.94,SSW,202,0.0,-999.0,67,-99.99,,,0.01,Acu-Link.com,2013-08-18 17:55:00,
2013-08-18 14:10:00,85.3,74.8,29.94,WSW,247,0.0,-999.0,71,-99.99,,,0.01,Acu-Link.com,2013-08-18 18:10:00,
2013-08-18 14:25:00,85.6,74.2,29.93,ENE,67,0.0,-999.0,69,-99.99,,,0.01,Acu-Link.com,2013-08-18 18:25:00,
2013-08-18 14:40:00,85.6,73.8,29.93,West,270,1.1,-999.0,68,-99.99,,,0.01,Acu-Link.com,2013-08-18 18:40:00,
2013-08-18 14:56:00,85.3,73.9,29.93,SE,135,0.0,-999.0,69,-99.99,,,0.01,Acu-Link.com,2013-08-18 18:56:00,
2013-08-18 15:11:00,86.4,74.6,29.92,SSW,202,1.7,-999.0,68,-99.99,,,0.01,Acu-Link.com,2013-08-18 19:11:00,
2013-08-18 15:26:00,86.0,73.7,29.91,WSW,247,0.0,-999.0,67,-99.99,,,0.01,Acu-Link.com,2013-08-18 19:26:00,
2013-08-18 15:41:00,88.0,75.2,29.90,ESE,112,0.0,-999.0,66,-99.99,,,0.01,Acu-Link.com,2013-08-18 19:41:00,
2013-08-18 15:56:00,86.9,74.6,29.90,South,180,0.0,-999.0,67,-99.99,,,0.01,Acu-Link.com,2013-08-18 19:56:00,
2013-08-18 16:11:00,86.9,75.5,29.90,East,90,0.0,-999.0,69,-99.99,,,0.01,Acu-Link.com,2013-08-18 20:11:00,
2013-08-18 16:26:00,87.4,74.6,29.89,NE,45,2.7,-999.0,66,-99.99,,,0.01,Acu-Link.com,2013-08-18 20:26:00,
2013-08-18 16:41:00,88.9,76.0,29.89,ESE,112,0.0,-999.0,66,-99.99,,,0.01,Acu-Link.com,2013-08-18 20:41:00,
2013-08-18 16:56:00,85.8,74.4,29.89,South,180,0.0,-999.0,69,-99.99,,,0.01,Acu-Link.com,2013-08-18 20:56:00,
2013-08-18 17:12:00,86.2,74.8,29.88,ENE,67,0.0,-999.0,69,-99.99,,,0.01,Acu-Link.com,2013-08-18 21:12:00,
2013-08-18 17:27:00,84.6,74.6,29.88,SSE,157,0.0,-999.0,72,-99.99,,,0.01,Acu-Link.com,2013-08-18 21:27:00,
2013-08-18 17:42:00,84.0,74.4,29.88,ESE,112,0.0,-999.0,73,-99.99,,,0.01,Acu-Link.com,2013-08-18 21:42:00,
2013-08-18 17:57:00,83.1,73.9,29.89,ESE,112,0.0,-999.0,74,-99.99,,,0.01,Acu-Link.com,2013-08-18 21:57:00,
2013-08-18 18:12:00,81.1,73.2,29.89,SW,225,3.7,-999.0,77,-99.99,,,0.01,Acu-Link.com,2013-08-18 22:12:00,
2013-08-18 18:27:00,75.4,70.2,29.91,SW,225,0.0,-999.0,84,-99.99,,,0.03,Acu-Link.com,2013-08-18 22:27:00,
2013-08-18 18:42:00,74.3,69.8,29.93,East,90,0.0,-999.0,86,-99.99,,,0.32,Acu-Link.com,2013-08-18 22:42:00,
2013-08-18 18:57:00,73.6,70.1,29.94,NNW,337,0.0,-999.0,89,-99.99,,,0.40,Acu-Link.com,2013-08-18 22:57:00,
2013-08-18 19:12:00,73.0,69.9,29.94,SW,225,0.0,-999.0,90,-99.99,,,0.44,Acu-Link.com,2013-08-18 23:12:00,
2013-08-18 19:28:00,72.7,69.9,29.94,West,270,0.0,-999.0,91,-99.99,,,0.45,Acu-Link.com,2013-08-18 23:28:00,
2013-08-18 19:43:00,72.5,70.0,29.94,East,90,0.0,-999.0,92,-99.99,,,0.46,Acu-Link.com,2013-08-18 23:43:00,
2013-08-18 19:58:00,72.1,69.6,29.94,East,90,0.0,-999.0,92,-99.99,,,0.47,Acu-Link.com,2013-08-18 23:58:00,
2013-08-18 20:13:00,72.1,70.0,29.95,NNW,337,0.0,-999.0,93,-99.99,,,0.47,Acu-Link.com,2013-08-19 00:13:00,
2013-08-18 20:28:00,72.0,69.9,29.94,SSE,157,0.0,-999.0,93,-99.99,,,0.49,Acu-Link.com,2013-08-19 00:28:00,
2013-08-18 20:43:00,72.0,70.2,29.94,SE,135,0.0,-999.0,94,-99.99,,,0.49,Acu-Link.com,2013-08-19 00:43:00,
2013-08-18 20:58:00,72.0,70.2,29.95,NNE,22,0.0,-999.0,94,-99.99,,,0.49,Acu-Link.com,2013-08-19 00:58:00,
2013-08-18 21:13:00,71.8,70.0,29.95,NE,45,0.0,-999.0,94,-99.99,,,0.49,Acu-Link.com,2013-08-19 01:13:00,
2013-08-18 21:28:00,71.6,69.8,29.94,ESE,112,0.0,-999.0,94,-99.99,,,0.58,Acu-Link.com,2013-08-19 01:28:00,
2013-08-18 21:43:00,71.6,69.8,29.95,NNE,22,0.0,-999.0,94,-99.99,,,0.58,Acu-Link.com,2013-08-19 01:43:00,
2013-08-18 21:59:00,71.6,69.8,29.95,East,90,0.0,-999.0,94,-99.99,,,0.58,Acu-Link.com,2013-08-19 01:59:00,
2013-08-18 22:14:00,71.6,70.1,29.94,ESE,112,0.0,-999.0,95,-99.99,,,0.58,Acu-Link.com,2013-08-19 02:14:00,
2013-08-18 22:29:00,71.6,70.1,29.94,SSW,202,0.0,-999.0,95,-99.99,,,0.58,Acu-Link.com,2013-08-19 02:29:00,
2013-08-18 22:44:00,71.6,70.1,29.94,SW,225,0.0,-999.0,95,-99.99,,,0.58,Acu-Link.com,2013-08-19 02:44:00,
2013-08-18 22:59:00,71.6,70.1,29.95,SW,225,0.0,-999.0,95,-99.99,,,0.58,Acu-Link.com,2013-08-19 02:59:00,
2013-08-18 23:14:00,71.6,70.1,29.95,NE,45,0.0,-999.0,95,-99.99,,,0.59,Acu-Link.com,2013-08-19 03:14:00,
2013-08-18 23:29:00,71.6,70.1,29.94,NE,45,0.0,-999.0,95,-99.99,,,0.59,Acu-Link.com,2013-08-19 03:29:00,
2013-08-18 23:44:00,71.6,70.1,29.94,NE,45,0.0,-999.0,95,-99.99,,,0.59,Acu-Link.com,2013-08-19 03:44:00,
2013-08-18 23:59:00,71.4,69.9,29.95,East,90,0.0,-999.0,95,-99.99,,,0.59,Acu-Link.com,2013-08-19 03:59:00,